Terminal Aerodrome Forecast
Issued by NWS

Home | Current Version | Previous Version | Text Only | Print | Product List | Glossary On
Versions: 1 2 3 4 5 6 7 8 9 10 11 12 13 14 15 16 17 18 19 20 21 22 23 24 25 26 27 28 29 30 31 32 33 34 35 36 37 38 39 40 41 42 43 44 45 46 47 48 49 50
000
FTUS43 KLOT 201400 AAA
TAFGYY
TAF AMD
KGYY 201403Z 2014/2112 21013G22KT P6SM SCT040 BKN120
     FM201730 22013G18KT P6SM VCSH SCT040 BKN100
      TEMPO 2019/2022 5SM -TSRA SCT015 BKN040CB
     FM210100 27010KT P6SM SCT040 BKN070
     FM210800 29012G17KT P6SM FEW030=

USA.gov is the U.S. government's official web portal to all federal, state and local government web resources and services.